createdAt,value
2022-12-04T00:03:55.663Z,101703.03
2022-12-04T00:07:57.563Z,101696.13
2022-12-04T00:11:59.620Z,101698.72
2022-12-04T00:16:03.294Z,101689.22
2022-12-04T00:20:05.690Z,101665.91
2022-12-04T00:24:07.779Z,101665.91
2022-12-04T00:28:09.520Z,101670.25
2022-12-04T00:32:11.468Z,101672.78
2022-12-04T00:36:16.291Z,101675.44
2022-12-04T00:40:18.004Z,101666.78
2022-12-04T00:44:19.958Z,101672.81
2022-12-04T00:48:21.676Z,101675.41
2022-12-04T00:52:23.597Z,101684.91
2022-12-04T00:56:27.814Z,101670.28
2022-12-04T01:00:30.376Z,101675.41
2022-12-04T01:04:31.970Z,101690.06
2022-12-04T01:08:34.866Z,101692.66
2022-12-04T01:12:36.861Z,101697.00
2022-12-04T01:16:39.898Z,101692.66
2022-12-04T01:20:48.704Z,101684.91
2022-12-04T01:24:50.771Z,101692.66
2022-12-04T01:28:52.730Z,101690.09
2022-12-04T01:32:54.400Z,101686.66
2022-12-04T01:36:56.360Z,101680.59
2022-12-04T01:40:58.200Z,101677.16
2022-12-04T01:45:33.954Z,101668.53
2022-12-04T01:49:39.555Z,101674.56
2022-12-04T01:53:46.917Z,101663.34
2022-12-04T01:57:48.766Z,101671.97
2022-12-04T02:02:02.437Z,101669.38
2022-12-04T02:06:05.234Z,101677.13
2022-12-04T02:10:09.194Z,101663.34
2022-12-04T02:14:30.182Z,101659.03
2022-12-04T02:18:46.485Z,101660.78
2022-12-04T02:23:19.476Z,101663.34
2022-12-04T02:27:42.303Z,101658.19
2022-12-04T02:31:48.284Z,101666.78
2022-12-04T02:36:16.101Z,101664.22
2022-12-04T02:40:26.330Z,101666.78
2022-12-04T02:44:42.192Z,101666.78
2022-12-04T02:48:48.337Z,101669.38
2022-12-04T02:52:59.767Z,101662.50
2022-12-04T02:57:04.579Z,101660.78
2022-12-04T03:01:19.592Z,101668.53
2022-12-04T03:05:27.356Z,101666.78
2022-12-04T03:09:39.546Z,101655.59
2022-12-04T03:13:57.586Z,101658.19
2022-12-04T03:18:41.974Z,101650.41
2022-12-04T03:22:50.293Z,101656.44
2022-12-04T03:27:28.863Z,101654.75
2022-12-04T03:31:39.954Z,101648.69
2022-12-04T03:36:06.243Z,101648.69
2022-12-04T03:40:22.812Z,101646.97
2022-12-04T03:44:35.461Z,101645.25
2022-12-04T03:49:02.834Z,101642.66
2022-12-04T03:53:22.428Z,101640.06
2022-12-04T03:57:30.415Z,101636.63
2022-12-04T04:01:35.370Z,101628.88
2022-12-04T04:05:43.868Z,101613.34
2022-12-04T04:09:49.316Z,101624.56
2022-12-04T04:14:14.218Z,101619.38
2022-12-04T04:18:48.631Z,101632.31
2022-12-04T04:23:13.764Z,101637.50
2022-12-04T04:27:15.615Z,101634.91
2022-12-04T04:31:36.523Z,101632.31
2022-12-04T04:35:53.055Z,101634.91
2022-12-04T04:40:06.406Z,101634.06
2022-12-04T04:44:39.387Z,101619.38
2022-12-04T04:48:46.525Z,101617.63
2022-12-04T04:52:53.526Z,101624.56
2022-12-04T04:56:55.664Z,101631.47
2022-12-04T05:01:01.421Z,101632.31
2022-12-04T05:05:04.170Z,101636.63
2022-12-04T05:09:05.922Z,101632.31
2022-12-04T05:13:09.448Z,101616.78
2022-12-04T05:17:12.940Z,101628.00
2022-12-04T05:21:17.761Z,101634.91
2022-12-04T05:25:19.518Z,101631.47
2022-12-04T05:29:21.430Z,101615.94
2022-12-04T05:33:23.185Z,101608.13
2022-12-04T05:37:25.520Z,101626.28
2022-12-04T05:41:27.144Z,101645.25
2022-12-04T05:45:29.137Z,101645.25
2022-12-04T05:49:32.334Z,101645.25
2022-12-04T05:53:34.565Z,101642.66
2022-12-04T05:57:36.205Z,101632.31
2022-12-04T06:01:38.232Z,101624.56
2022-12-04T06:05:39.823Z,101616.78
2022-12-04T06:09:41.751Z,101627.13
2022-12-04T06:13:45.586Z,101627.13
2022-12-04T06:17:47.513Z,101637.50
2022-12-04T06:21:52.384Z,101654.75
2022-12-04T06:25:56.167Z,101668.53
2022-12-04T06:29:58.537Z,101666.78
2022-12-04T06:34:00.910Z,101665.09
2022-12-04T06:38:02.520Z,101669.38
2022-12-04T06:42:04.490Z,101646.09
2022-12-04T06:46:15.215Z,101626.28
2022-12-04T06:50:17.341Z,101649.56
2022-12-04T06:54:19.226Z,101675.44
2022-12-04T06:58:20.958Z,101669.38
2022-12-04T07:02:22.978Z,101667.63
2022-12-04T07:06:28.119Z,101659.88
2022-12-04T07:10:29.859Z,101643.50
2022-12-04T07:14:32.227Z,101650.41
2022-12-04T07:18:35.887Z,101639.16
2022-12-04T07:22:37.733Z,101634.00
2022-12-04T07:26:39.674Z,101637.47
2022-12-04T07:30:41.346Z,101642.63
2022-12-04T07:34:43.282Z,101640.06
2022-12-04T07:38:46.135Z,101644.34
2022-12-04T07:42:47.921Z,101636.59
2022-12-04T07:46:49.837Z,101641.72
2022-12-04T07:51:04.002Z,101643.47
2022-12-04T07:55:07.058Z,101656.44
2022-12-04T07:59:09.012Z,101664.19
2022-12-04T08:03:10.907Z,101646.06
2022-12-04T08:07:12.532Z,101649.50
2022-12-04T08:11:17.418Z,101650.41
2022-12-04T08:15:19.115Z,101659.88
2022-12-04T08:19:21.386Z,101667.63
2022-12-04T08:23:23.436Z,101659.03
2022-12-04T08:27:25.114Z,101669.38
2022-12-04T08:31:29.812Z,101656.44
2022-12-04T08:35:31.484Z,101668.53
2022-12-04T08:39:33.366Z,101665.03
2022-12-04T08:43:35.323Z,101655.56
2022-12-04T08:47:37.143Z,101664.19
2022-12-04T08:51:39.502Z,101651.25
2022-12-04T08:55:41.470Z,101655.59
2022-12-04T08:59:43.174Z,101664.19
2022-12-04T09:03:45.283Z,101656.41
2022-12-04T09:07:46.921Z,101643.44
2022-12-04T09:11:49.110Z,101640.03
2022-12-04T09:15:51.131Z,101637.41
2022-12-04T09:19:55.552Z,101651.22
2022-12-04T09:24:01.290Z,101640.84
2022-12-04T09:28:04.528Z,101640.88
2022-12-04T09:32:06.206Z,101642.63
2022-12-04T09:36:08.414Z,101644.34
2022-12-04T09:40:23.968Z,101641.69
2022-12-04T09:44:39.358Z,101638.28
2022-12-04T09:48:44.300Z,101621.88
2022-12-04T09:53:06.431Z,101620.09
2022-12-04T09:57:25.653Z,101620.13
2022-12-04T10:01:39.403Z,101621.78
2022-12-04T10:05:53.246Z,101601.13
2022-12-04T10:10:46.938Z,101601.13
2022-12-04T10:15:06.667Z,101613.97
2022-12-04T10:19:42.473Z,101616.56
2022-12-04T10:23:55.782Z,101615.63
2022-12-04T10:28:26.330Z,101607.84
2022-12-04T10:32:35.269Z,101595.75
2022-12-04T10:36:37.286Z,101594.84
2022-12-04T10:40:48.965Z,101590.41
2022-12-04T10:44:51.737Z,101584.16
2022-12-04T10:49:01.567Z,101598.16
2022-12-04T10:53:03.588Z,101592.72
2022-12-04T10:57:11.568Z,101587.16
2022-12-04T11:01:15.591Z,101576.72
2022-12-04T11:05:28.138Z,101571.59
2022-12-04T11:09:30.446Z,101574.13
2022-12-04T11:13:32.738Z,101568.88
2022-12-04T11:17:34.505Z,101552.59
2022-12-04T11:21:38.576Z,101543.09
2022-12-04T11:25:47.267Z,101546.56
2022-12-04T11:29:50.024Z,101549.09
2022-12-04T11:33:58.348Z,101556.56
2022-12-04T11:38:08.553Z,101559.28
2022-12-04T11:42:13.041Z,101554.19
2022-12-04T11:46:23.921Z,101564.53
2022-12-04T11:50:40.950Z,101553.47
2022-12-04T11:55:00.326Z,101555.16
2022-12-04T11:59:13.203Z,101550.94
2022-12-04T12:03:30.947Z,101532.91
2022-12-04T12:08:02.439Z,101549.28
2022-12-04T12:12:17.474Z,101554.13
2022-12-04T12:16:29.333Z,101554.09
2022-12-04T12:21:00.325Z,101546.34
2022-12-04T12:25:22.213Z,101543.06
2022-12-04T12:29:37.809Z,101536.19
2022-12-04T12:33:46.687Z,101523.28
2022-12-04T12:37:55.998Z,101530.00
2022-12-04T12:42:01.054Z,101518.03
2022-12-04T12:46:12.523Z,101515.47
2022-12-04T12:50:38.061Z,101531.88
2022-12-04T12:54:49.126Z,101529.31
2022-12-04T12:58:57.662Z,101541.25
2022-12-04T13:03:44.477Z,101537.66
2022-12-04T13:07:58.624Z,101537.63
2022-12-04T13:12:08.491Z,101537.00
2022-12-04T13:16:31.198Z,101530.03
2022-12-04T13:20:43.155Z,101531.06
2022-12-04T13:24:50.691Z,101527.31
2022-12-04T13:29:17.872Z,101527.63
2022-12-04T13:33:38.151Z,101536.25
2022-12-04T13:38:33.017Z,101532.66
2022-12-04T13:42:35.306Z,101538.63
2022-12-04T13:46:50.205Z,101542.94
2022-12-04T13:51:02.118Z,101552.50
2022-12-04T13:55:04.024Z,101548.41
2022-12-04T13:59:21.496Z,101552.72
2022-12-04T14:03:48.244Z,101555.06
2022-12-04T14:08:07.935Z,101561.97
2022-12-04T14:12:14.002Z,101557.88
2022-12-04T14:16:22.796Z,101569.06
2022-12-04T14:20:27.440Z,101563.94
2022-12-04T14:24:38.990Z,101564.91
2022-12-04T14:28:42.666Z,101571.69
2022-12-04T14:32:46.902Z,101575.22
2022-12-04T14:36:54.600Z,101571.66
2022-12-04T14:40:58.197Z,101581.22
2022-12-04T14:45:02.493Z,101573.50
2022-12-04T14:49:27.240Z,101571.66
2022-12-04T14:53:38.986Z,101571.50
2022-12-04T14:57:49.634Z,101584.50
2022-12-04T15:01:54.920Z,101589.75
2022-12-04T15:06:06.866Z,101579.41
2022-12-04T15:10:47.271Z,101575.00
2022-12-04T15:14:50.104Z,101577.56
2022-12-04T15:19:00.403Z,101588.75
2022-12-04T15:23:03.536Z,101596.59
2022-12-04T15:27:07.024Z,101593.09
2022-12-04T15:31:17.418Z,101594.84
2022-12-04T15:35:25.336Z,101600.00
2022-12-04T15:39:28.381Z,101607.75
2022-12-04T15:43:42.192Z,101591.38
2022-12-04T15:47:44.330Z,101594.94
2022-12-04T15:51:47.544Z,101585.47
2022-12-04T15:55:57.502Z,101581.28
2022-12-04T16:00:02.821Z,101575.97
2022-12-04T16:04:20.147Z,101571.81
2022-12-04T16:08:31.220Z,101568.41
2022-12-04T16:12:33.423Z,101569.91
2022-12-04T16:16:37.129Z,101570.84
2022-12-04T16:20:39.957Z,101576.91
2022-12-04T16:24:41.975Z,101576.88
2022-12-04T16:28:44.366Z,101577.69
2022-12-04T16:32:46.105Z,101575.19
2022-12-04T16:36:48.085Z,101576.88
2022-12-04T16:40:50.030Z,101569.13
2022-12-04T16:44:52.245Z,101561.50
2022-12-04T16:48:54.622Z,101558.91
2022-12-04T16:52:56.354Z,101562.25
2022-12-04T16:56:58.572Z,101567.31
2022-12-04T17:01:00.451Z,101554.59
2022-12-04T17:05:02.713Z,101563.00
2022-12-04T17:09:05.503Z,101568.38
2022-12-04T17:13:07.459Z,101568.34
2022-12-04T17:17:09.158Z,101565.72
2022-12-04T17:21:13.357Z,101562.38
2022-12-04T17:25:16.470Z,101557.97
2022-12-04T17:29:18.378Z,101566.66
2022-12-04T17:33:20.298Z,101545.97
2022-12-04T17:37:22.211Z,101552.81
2022-12-04T17:41:24.815Z,101543.28
2022-12-04T17:45:27.023Z,101542.44
2022-12-04T17:49:28.828Z,101536.41
2022-12-04T17:53:30.754Z,101545.00
2022-12-04T17:57:32.703Z,101534.69
2022-12-04T18:01:34.884Z,101530.34
2022-12-04T18:05:36.672Z,101537.28
2022-12-04T18:09:38.832Z,101530.34
2022-12-04T18:13:40.465Z,101526.91
2022-12-04T18:17:42.352Z,101519.97
2022-12-04T18:21:44.476Z,101535.50
2022-12-04T18:25:55.442Z,101540.72
2022-12-04T18:29:57.726Z,101545.88
2022-12-04T18:34:00.002Z,101539.81
2022-12-04T18:38:01.636Z,101539.84
2022-12-04T18:42:03.714Z,101552.78
2022-12-04T18:46:08.521Z,101541.63
2022-12-04T18:50:10.466Z,101549.34
2022-12-04T18:54:15.716Z,101559.66
2022-12-04T18:58:17.754Z,101563.97
2022-12-04T19:02:19.775Z,101567.47
2022-12-04T19:06:21.596Z,101569.16
2022-12-04T19:10:24.291Z,101564.88
2022-12-04T19:14:26.506Z,101570.88
2022-12-04T19:18:29.796Z,101569.13
2022-12-04T19:22:31.515Z,101579.47
2022-12-04T19:26:34.453Z,101566.50
2022-12-04T19:30:36.034Z,101566.44
2022-12-04T19:34:38.118Z,101559.53
2022-12-04T19:38:40.450Z,101561.41
2022-12-04T19:42:42.411Z,101538.03
2022-12-04T19:46:44.090Z,101542.31
2022-12-04T19:50:45.992Z,101543.22
2022-12-04T19:54:47.631Z,101537.19
2022-12-04T19:58:49.627Z,101532.84
2022-12-04T20:02:51.433Z,101530.34
2022-12-04T20:06:53.539Z,101541.69
2022-12-04T20:10:55.197Z,101545.03
2022-12-04T20:14:57.475Z,101558.78
2022-12-04T20:19:01.140Z,101582.94
2022-12-04T20:23:03.047Z,101590.72
2022-12-04T20:27:05.008Z,101577.81
2022-12-04T20:31:28.284Z,101573.53
2022-12-04T20:35:30.526Z,101582.09
2022-12-04T20:39:32.609Z,101611.47
2022-12-04T20:43:34.761Z,101604.50
2022-12-04T20:47:37.273Z,101592.47
2022-12-04T20:51:41.805Z,101588.25
2022-12-04T20:55:52.902Z,101586.47
2022-12-04T20:59:55.011Z,101573.56
2022-12-04T21:03:58.897Z,101576.13
2022-12-04T21:08:00.785Z,101571.75
2022-12-04T21:12:03.766Z,101561.41
2022-12-04T21:16:07.108Z,101561.41
2022-12-04T21:20:10.132Z,101546.81
2022-12-04T21:24:15.230Z,101544.19
2022-12-04T21:28:16.877Z,101536.47
2022-12-04T21:32:19.697Z,101536.53
2022-12-04T21:36:21.986Z,101549.47
2022-12-04T21:40:23.936Z,101544.22
2022-12-04T21:44:25.917Z,101539.88
2022-12-04T21:48:28.065Z,101538.16
2022-12-04T21:52:30.135Z,101539.97
2022-12-04T21:56:32.017Z,101544.16
2022-12-04T22:00:33.965Z,101551.03
2022-12-04T22:04:35.582Z,101544.19
2022-12-04T22:08:39.897Z,101541.53
2022-12-04T22:12:49.423Z,101559.41
2022-12-04T22:16:53.073Z,101575.97
2022-12-04T22:20:54.942Z,101540.66
2022-12-04T22:24:57.955Z,101539.13
2022-12-04T22:29:01.153Z,101544.25
2022-12-04T22:33:03.179Z,101538.13
2022-12-04T22:37:05.109Z,101536.41
2022-12-04T22:41:10.650Z,101513.31
2022-12-04T22:45:13.030Z,101505.47
2022-12-04T22:49:15.055Z,101502.09
2022-12-04T22:53:16.719Z,101498.59
2022-12-04T22:57:18.898Z,101501.22
2022-12-04T23:01:24.390Z,101499.53
2022-12-04T23:05:26.377Z,101490.03
2022-12-04T23:09:28.107Z,101480.47
2022-12-04T23:13:30.304Z,101479.69
2022-12-04T23:17:31.969Z,101486.59
2022-12-04T23:21:34.960Z,101496.06
2022-12-04T23:25:41.178Z,101492.56
2022-12-04T23:29:53.861Z,101490.84
2022-12-04T23:33:55.740Z,101498.59
2022-12-04T23:37:57.744Z,101499.44
2022-12-04T23:41:59.368Z,101498.66
2022-12-04T23:46:05.748Z,101490.03
2022-12-04T23:50:11.083Z,101488.28
2022-12-04T23:54:13.071Z,101478.81
2022-12-04T23:58:14.678Z,101481.44
